createdAt,value
2023-05-12T00:01:04.142Z,9.30
2023-05-12T00:06:32.287Z,9.30
2023-05-12T00:12:02.744Z,9.30
2023-05-12T00:17:31.051Z,9.30
2023-05-12T00:22:59.228Z,9.30
2023-05-12T00:28:27.303Z,9.30
2023-05-12T00:33:58.030Z,9.20
2023-05-12T00:39:26.272Z,9.20
2023-05-12T00:44:54.302Z,9.20
2023-05-12T00:50:22.824Z,9.10
2023-05-12T00:55:50.864Z,9.10
2023-05-12T01:01:19.349Z,9.10
2023-05-12T01:07:01.144Z,9.10
2023-05-12T01:12:29.583Z,9.10
2023-05-12T01:18:04.503Z,9.10
2023-05-12T01:23:49.149Z,9.10
2023-05-12T01:29:17.624Z,9.10
2023-05-12T01:34:46.489Z,9.10
2023-05-12T01:40:15.398Z,9.10
2023-05-12T01:45:44.382Z,9.10
2023-05-12T01:51:12.614Z,9.10
2023-05-12T01:56:42.154Z,9.10
2023-05-12T02:02:12.447Z,9.00
2023-05-12T02:07:40.399Z,9.00
2023-05-12T02:13:09.508Z,8.90
2023-05-12T02:18:37.445Z,8.80
2023-05-12T02:24:07.251Z,8.80
2023-05-12T02:29:36.320Z,8.80
2023-05-12T02:35:05.622Z,8.70
2023-05-12T02:40:33.991Z,8.70
2023-05-12T02:46:02.422Z,8.70
2023-05-12T02:51:32.103Z,8.70
2023-05-12T02:57:04.955Z,8.80
2023-05-12T03:02:38.474Z,8.80
2023-05-12T03:08:08.653Z,8.80
2023-05-12T03:13:36.795Z,8.80
2023-05-12T03:19:05.409Z,8.80
2023-05-12T03:24:34.513Z,8.80
2023-05-12T03:30:05.102Z,8.70
2023-05-12T03:35:36.299Z,8.70
2023-05-12T03:41:08.581Z,8.70
2023-05-12T03:46:38.392Z,8.70
2023-05-12T03:52:06.970Z,8.70
2023-05-12T03:57:36.485Z,8.70
2023-05-12T04:03:04.659Z,8.70
2023-05-12T04:08:34.805Z,8.70
2023-05-12T04:14:02.735Z,8.70
2023-05-12T04:19:30.893Z,8.70
2023-05-12T04:24:59.226Z,8.70
2023-05-12T04:30:27.342Z,8.80
2023-05-12T04:35:58.939Z,8.80
2023-05-12T04:41:27.280Z,8.80
2023-05-12T04:46:56.554Z,8.80
2023-05-12T04:52:25.421Z,8.90
2023-05-12T04:57:53.577Z,9.00
2023-05-12T05:03:21.863Z,9.00
2023-05-12T05:08:50.003Z,9.10
2023-05-12T05:14:18.531Z,9.20
2023-05-12T05:19:57.462Z,9.30
2023-05-12T05:25:29.793Z,9.30
2023-05-12T05:30:58.122Z,9.40
2023-05-12T05:36:26.971Z,9.50
2023-05-12T05:41:56.224Z,9.60
2023-05-12T05:47:24.559Z,9.70
2023-05-12T05:52:54.807Z,10.00
2023-05-12T05:58:25.358Z,10.20
2023-05-12T06:03:53.957Z,10.30
2023-05-12T06:09:23.326Z,10.40
2023-05-12T06:14:51.505Z,10.40
2023-05-12T06:20:20.335Z,10.40
2023-05-12T06:25:49.997Z,10.30
2023-05-12T06:31:18.359Z,10.40
2023-05-12T06:36:49.076Z,10.50
2023-05-12T06:42:17.192Z,10.60
2023-05-12T06:47:51.480Z,10.60
2023-05-12T06:53:20.186Z,10.60
2023-05-12T06:58:50.041Z,10.60
2023-05-12T07:04:18.300Z,10.70
2023-05-12T07:09:46.258Z,10.80
2023-05-12T07:15:14.503Z,10.80
2023-05-12T07:20:42.863Z,10.80
2023-05-12T07:26:11.210Z,10.90
2023-05-12T07:31:39.695Z,11.00
2023-05-12T07:37:08.113Z,11.10
2023-05-12T07:42:35.997Z,11.20
2023-05-12T07:48:04.416Z,11.30
2023-05-12T07:53:33.734Z,11.40
2023-05-12T07:59:02.230Z,11.50
2023-05-12T08:04:32.517Z,11.60
2023-05-12T08:10:01.250Z,11.90
2023-05-12T08:15:29.413Z,12.10
2023-05-12T08:20:58.112Z,12.20
2023-05-12T08:26:26.505Z,12.30
2023-05-12T08:31:54.936Z,12.40
2023-05-12T08:37:23.666Z,12.50
2023-05-12T08:43:26.218Z,12.60
2023-05-12T08:48:55.853Z,12.60
2023-05-12T08:54:27.531Z,12.80
2023-05-12T08:59:57.292Z,12.90
2023-05-12T09:05:25.631Z,13.00
2023-05-12T09:10:57.047Z,13.10
2023-05-12T09:16:29.263Z,13.20
2023-05-12T09:21:58.036Z,13.30
2023-05-12T09:27:32.544Z,13.30
2023-05-12T09:33:08.126Z,13.40
2023-05-12T09:38:36.996Z,13.30
2023-05-12T09:44:06.606Z,13.30
2023-05-12T09:49:34.989Z,13.40
2023-05-12T09:55:11.104Z,13.50
2023-05-12T10:01:06.100Z,13.50
2023-05-12T10:06:36.746Z,13.60
2023-05-12T10:12:06.392Z,13.70
2023-05-12T10:17:35.605Z,13.70
2023-05-12T10:23:05.289Z,13.70
2023-05-12T10:28:33.474Z,13.70
2023-05-12T10:34:02.925Z,13.80
2023-05-12T10:39:35.595Z,13.80
2023-05-12T10:45:19.741Z,13.80
2023-05-12T10:50:54.685Z,13.70
2023-05-12T10:56:31.231Z,13.60
2023-05-12T11:02:27.555Z,13.50
2023-05-12T11:07:57.097Z,13.40
2023-05-12T11:13:25.819Z,13.30
2023-05-12T11:19:06.444Z,13.40
2023-05-12T11:24:35.411Z,13.40
2023-05-12T11:30:07.083Z,13.50
2023-05-12T11:35:35.249Z,13.60
2023-05-12T11:41:03.507Z,13.80
2023-05-12T11:46:31.866Z,14.00
2023-05-12T11:52:02.416Z,14.10
2023-05-12T11:57:33.023Z,14.30
2023-05-12T12:03:08.736Z,14.20
2023-05-12T12:08:40.610Z,14.30
2023-05-12T12:14:08.611Z,14.10
2023-05-12T12:19:36.825Z,13.80
2023-05-12T12:25:06.121Z,13.50
2023-05-12T12:30:34.664Z,13.40
2023-05-12T12:36:03.178Z,13.30
2023-05-12T12:41:31.296Z,13.40
2023-05-12T12:46:59.857Z,13.40
2023-05-12T12:52:28.260Z,13.60
2023-05-12T12:57:56.360Z,13.70
2023-05-12T13:03:25.111Z,13.70
2023-05-12T13:08:53.154Z,13.80
2023-05-12T13:14:21.624Z,13.80
2023-05-12T13:19:49.834Z,13.80
2023-05-12T13:25:18.771Z,13.80
2023-05-12T13:30:46.745Z,13.60
2023-05-12T13:36:14.599Z,13.40
2023-05-12T13:41:42.854Z,13.20
2023-05-12T13:47:11.034Z,13.10
2023-05-12T13:52:39.201Z,12.90
2023-05-12T13:58:07.290Z,12.80
2023-05-12T14:03:37.108Z,12.80
2023-05-12T14:09:06.159Z,12.90
2023-05-12T14:14:34.006Z,13.00
2023-05-12T14:20:02.346Z,13.00
2023-05-12T14:25:30.920Z,12.90
2023-05-12T14:30:59.010Z,12.80
2023-05-12T14:36:27.388Z,12.80
2023-05-12T14:41:55.448Z,12.80
2023-05-12T14:47:23.662Z,12.70
2023-05-12T14:52:51.945Z,12.80
2023-05-12T14:58:21.699Z,12.80
2023-05-12T15:03:50.631Z,12.70
2023-05-12T15:09:18.833Z,12.60
2023-05-12T15:14:47.196Z,12.50
2023-05-12T15:20:15.824Z,12.50
2023-05-12T15:25:43.896Z,12.50
2023-05-12T15:31:12.142Z,12.50
2023-05-12T15:36:40.275Z,12.50
2023-05-12T15:42:08.557Z,12.40
2023-05-12T15:47:36.819Z,12.40
2023-05-12T15:53:04.976Z,12.50
2023-05-12T15:58:37.173Z,12.50
2023-05-12T16:04:05.024Z,12.40
2023-05-12T16:09:33.356Z,12.50
2023-05-12T16:15:02.161Z,12.50
2023-05-12T16:20:30.458Z,12.60
2023-05-12T16:25:59.400Z,12.60
2023-05-12T16:31:27.730Z,12.50
2023-05-12T16:36:55.977Z,12.50
2023-05-12T16:42:25.307Z,12.50
2023-05-12T16:47:53.710Z,12.50
2023-05-12T16:53:21.921Z,12.40
2023-05-12T16:58:50.184Z,12.30
2023-05-12T17:04:18.486Z,12.20
2023-05-12T17:09:46.668Z,12.10
2023-05-12T17:15:14.965Z,12.00
2023-05-12T17:20:46.049Z,12.00
2023-05-12T17:26:15.090Z,11.90
2023-05-12T17:31:43.447Z,11.80
2023-05-12T17:37:12.387Z,11.80
2023-05-12T17:42:40.779Z,11.70
2023-05-12T17:48:09.107Z,11.60
2023-05-12T17:53:37.374Z,11.60
2023-05-12T17:59:05.563Z,11.60
2023-05-12T18:04:35.410Z,11.50
2023-05-12T18:10:03.965Z,11.50
2023-05-12T18:15:32.392Z,11.40
2023-05-12T18:21:01.142Z,11.40
2023-05-12T18:26:29.510Z,11.40
2023-05-12T18:31:57.440Z,11.40
2023-05-12T18:37:25.366Z,11.40
2023-05-12T18:42:53.878Z,11.30
2023-05-12T18:48:22.471Z,11.30
2023-05-12T18:53:50.713Z,11.30
2023-05-12T18:59:19.032Z,11.30
2023-05-12T19:04:47.360Z,11.30
2023-05-12T19:10:16.741Z,11.20
2023-05-12T19:15:45.045Z,11.20
2023-05-12T19:21:13.606Z,11.10
2023-05-12T19:26:41.326Z,11.10
2023-05-12T19:32:10.086Z,11.00
2023-05-12T19:37:39.286Z,11.00
2023-05-12T19:43:10.654Z,11.00
2023-05-12T19:48:38.958Z,10.90
2023-05-12T19:54:08.311Z,10.90
2023-05-12T19:59:36.525Z,10.80
2023-05-12T20:05:04.898Z,10.80
2023-05-12T20:10:33.392Z,10.70
2023-05-12T20:16:01.892Z,10.70
2023-05-12T20:21:31.471Z,10.60
2023-05-12T20:26:59.353Z,10.60
2023-05-12T20:32:27.962Z,10.50
2023-05-12T20:37:56.170Z,10.50
2023-05-12T20:43:24.017Z,10.50
2023-05-12T20:48:52.533Z,10.40
2023-05-12T20:54:20.860Z,10.40
2023-05-12T20:59:52.581Z,10.50
2023-05-12T21:05:21.035Z,10.40
2023-05-12T21:10:50.261Z,10.40
2023-05-12T21:16:21.218Z,10.40
2023-05-12T21:21:49.028Z,10.40
2023-05-12T21:27:16.918Z,10.40
2023-05-12T21:32:44.936Z,10.30
2023-05-12T21:38:14.038Z,10.30
2023-05-12T21:43:42.321Z,10.30
2023-05-12T21:49:10.750Z,10.30
2023-05-12T21:54:39.703Z,10.30
2023-05-12T22:00:12.019Z,10.20
2023-05-12T22:05:41.809Z,10.20
2023-05-12T22:11:10.810Z,10.20
2023-05-12T22:16:42.382Z,10.20
2023-05-12T22:22:11.231Z,10.20
2023-05-12T22:27:39.518Z,10.10
2023-05-12T22:33:07.844Z,10.10
2023-05-12T22:38:36.060Z,10.00
2023-05-12T22:44:04.118Z,10.00
2023-05-12T22:49:32.664Z,10.00
2023-05-12T22:55:00.930Z,10.00
2023-05-12T23:00:29.256Z,10.00
2023-05-12T23:05:57.387Z,9.90
2023-05-12T23:11:25.783Z,9.90
2023-05-12T23:16:54.701Z,9.90
2023-05-12T23:22:23.008Z,9.80
2023-05-12T23:27:51.263Z,9.80
2023-05-12T23:33:19.529Z,9.80
2023-05-12T23:38:50.952Z,9.80
2023-05-12T23:44:19.367Z,9.80
2023-05-12T23:49:47.714Z,9.70
2023-05-12T23:55:15.934Z,9.70
